St.peterburg Pilot — UAMI — position and weather

sailwx.info

Track history (hours):
 
Tides and Currents Weather Stations Pressure Air Temp Water Temp Dewpoint Dewpoint Depression Visibility Wind Speed Wind Dir Waves Ship Positions

St.peterburg Pilot

Last reported at 2017-Jul-23 17:26 UTC. Time now 2017-Jul-26 18:41 UTC.
Position N 60°01' E 029°29'.

Length 59 m; draft 3.8 m.

Type: Pilot. MMSI: 273436530.

Date/timePositionNaut miles runAvg speedWind from/ knotsBaromVisibWave heightAir tempDewpointWater temp
2017-Jul-23 17:26N 60°01' E 029°29'0 0.0
2017-Jul-23 16:58N 60°01' E 029°29'0 0.0
2017-Jul-23 16:27N 60°01' E 029°29'0 0.0
2017-Jul-23 15:57N 60°01' E 029°29'0 0.0
2017-Jul-23 15:16N 60°01' E 029°29'0 0.0
2017-Jul-23 14:31N 60°01' E 029°29'0 0.2
2017-Jul-23 14:29N 60°01' E 029°29'0 0.0
2017-Jul-23 13:56N 60°01' E 029°29'0 0.0
2017-Jul-23 13:25N 60°01' E 029°29'0 0.0
2017-Jul-23 12:59N 60°01' E 029°29'0 0.0
2017-Jul-23 12:20N 60°01' E 029°29'0 0.0
2017-Jul-23 11:55N 60°01' E 029°29'0 0.0
2017-Jul-23 05:52N 60°01' E 029°29'0 0.0
2017-Jul-23 05:30N 60°01' E 029°29'0 0.0
2017-Jul-23 04:57N 60°01' E 029°29'0 0.0
2017-Jul-23 04:27N 60°01' E 029°29'0 0.0
2017-Jul-23 03:55N 60°01' E 029°29'0 0.0
2017-Jul-23 03:28N 60°01' E 029°29'0 0.0
2017-Jul-23 02:58N 60°01' E 029°29'0 0.0
2017-Jul-23 02:28N 60°01' E 029°29'0 0.0
2017-Jul-23 01:56N 60°01' E 029°29'0 0.0
2017-Jul-23 01:30N 60°01' E 029°29'0 0.0
2017-Jul-23 00:56N 60°01' E 029°29'0 0.0
2017-Jul-23 00:19N 60°01' E 029°29'0 0.0
2017-Jul-23 00:00N 60°01' E 029°29'0 0.0
2017-Jul-22 23:30N 60°01' E 029°29'0 0.0
2017-Jul-22 22:49N 60°01' E 029°29'0 0.0
2017-Jul-22 22:27N 60°01' E 029°29'0 0.0
2017-Jul-22 21:48N 60°01' E 029°29'0 0.0
2017-Jul-22 21:25N 60°01' E 029°29'0 0.0
2017-Jul-22 19:57N 60°01' E 029°29'0 0.0
2017-Jul-22 19:25N 60°01' E 029°29'0 0.0
2017-Jul-22 18:41N 60°01' E 029°29'0 0.0
2017-Jul-22 18:19N 60°01' E 029°29'0 0.0
2017-Jul-22 17:23N 60°01' E 029°29'0 0.0
2017-Jul-22 16:51N 60°01' E 029°29'0 0.0
2017-Jul-22 16:26N 60°01' E 029°29'0 0.0
2017-Jul-22 15:58N 60°01' E 029°29'0 0.0
2017-Jul-22 15:21N 60°01' E 029°29'0 0.0
2017-Jul-22 14:59N 60°01' E 029°29'0 0.0
2017-Jul-22 04:34N 60°01' E 029°29'0 0.0
2017-Jul-22 04:16N 60°01' E 029°29'0 0.0
2017-Jul-22 03:52N 60°01' E 029°29'0 0.0
2017-Jul-22 03:23N 60°01' E 029°29'0 0.0
2017-Jul-21 20:44N 60°01' E 029°29'0 0.0
2017-Jul-21 19:53N 60°01' E 029°29'0 0.0
2017-Jul-21 19:28N 60°01' E 029°29'0 0.0
2017-Jul-21 18:55N 60°01' E 029°29'0 0.0
2017-Jul-21 18:30N 60°01' E 029°29'0 0.0
2017-Jul-21 17:59N 60°01' E 029°29'0 0.0
2017-Jul-21 17:28N 60°01' E 029°29'0 0.0
2017-Jul-21 16:57N 60°01' E 029°29'0 0.0
2017-Jul-21 16:24N 60°01' E 029°29'0 0.0
2017-Jul-21 15:58N 60°01' E 029°29'0 0.0
2017-Jul-21 11:20N 60°01' E 029°29'0 0.0
2017-Jul-21 10:56N 60°01' E 029°29'0 0.0
2017-Jul-21 10:28N 60°01' E 029°29'0 0.0
2017-Jul-21 09:59N 60°01' E 029°29'0 0.0
2017-Jul-21 09:29N 60°01' E 029°29'0 0.0
2017-Jul-21 08:57N 60°01' E 029°29'0 0.0
2017-Jul-21 08:25N 60°01' E 029°29'0 0.0
2017-Jul-21 07:58N 60°01' E 029°29'0 0.0
2017-Jul-21 06:56N 60°01' E 029°29'0 0.0
2017-Jul-21 06:23N 60°01' E 029°29'0 0.0
2017-Jul-21 05:58N 60°01' E 029°29'0 0.0
2017-Jul-21 05:29N 60°01' E 029°29'0 0.0
2017-Jul-21 04:08N 60°01' E 029°29'0 0.0
2017-Jul-21 00:58N 60°01' E 029°29'0 0.0
2017-Jul-21 00:17N 60°01' E 029°29'0 0.0
2017-Jul-20 23:58N 60°01' E 029°29'0 0.1
2017-Jul-20 23:28N 60°01' E 029°29'0 0.0
2017-Jul-20 22:57N 60°01' E 029°29'6 0.2
2017-Jul-19 19:17N 59°60' E 029°40'2 7.6
2017-Jul-19 18:58N 59°59' E 029°44'4 8.9
2017-Jul-19 18:30N 59°57' E 029°51'5 9.5
2017-Jul-19 18:00N 59°55' E 030°00'4 8.4
2017-Jul-19 17:30N 59°54' E 030°08'3 5.2
2017-Jul-19 17:00N 59°54' E 030°13'0 0.1
2017-Jul-19 16:25N 59°54' E 030°13'0 0.0
2017-Jul-19 15:59N 59°54' E 030°13'0 0.0
2017-Jul-19 15:29N 59°54' E 030°13'0 0.0
2017-Jul-19 14:57N 59°54' E 030°13'0 0.0
2017-Jul-19 14:30N 59°54' E 030°13'0 0.0
2017-Jul-19 14:00N 59°54' E 030°13'0 0.0
2017-Jul-19 13:29N 59°54' E 030°13'0 0.0
2017-Jul-19 12:57N 59°54' E 030°13'0 0.0
2017-Jul-19 12:30N 59°54' E 030°13'0 0.0
2017-Jul-19 11:59N 59°54' E 030°13'0 0.0
2017-Jul-19 11:28N 59°54' E 030°13'0 0.0
2017-Jul-19 10:56N 59°54' E 030°13'0 0.0
2017-Jul-19 10:30N 59°54' E 030°13'0 0.0
2017-Jul-19 10:00N 59°54' E 030°13'0 0.0
2017-Jul-19 09:29N 59°54' E 030°13'0 0.0
2017-Jul-19 09:00N 59°54' E 030°13'0 0.0
2017-Jul-19 08:30N 59°54' E 030°13'0 0.6
2017-Jul-19 08:00N 59°54' E 030°13'2 4.4
2017-Jul-19 07:30N 59°56' E 030°10'4 6.7
2017-Jul-19 06:58N 59°56' E 030°03'4 7.4
2017-Jul-19 06:28N 59°56' E 029°56'15 2.9
2017-Jul-19 01:21N 60°01' E 029°28'0 0.0
2017-Jul-17 10:13N 60°01' E 029°28'0 0.0
2017-Jul-17 09:52N 60°01' E 029°28'0 0.0
2017-Jul-17 07:49N 60°01' E 029°28'0 0.0
2017-Jul-16 21:59N 60°01' E 029°28'0 0.0
2017-Jul-16 21:28N 60°01' E 029°28'0 0.0
2017-Jul-16 20:59N 60°01' E 029°28'0 0.0
2017-Jul-16 20:29N 60°01' E 029°28'0 0.0
2017-Jul-16 19:49N 60°01' E 029°28'0 0.1
2017-Jul-16 19:31N 60°01' E 029°28'0 0.0
2017-Jul-16 18:56N 60°01' E 029°28'0 0.0
2017-Jul-16 18:12N 60°01' E 029°28'0 0.0
2017-Jul-16 16:59N 60°01' E 029°28'0 0.0
2017-Jul-16 16:27N 60°01' E 029°28'0 0.0
2017-Jul-16 00:34N 60°01' E 029°28'0 0.0
2017-Jul-16 00:26N 60°01' E 029°28'0 0.0
2017-Jul-15 23:51N 60°01' E 029°28'0 0.0
2017-Jul-15 23:30N 60°01' E 029°28'0 0.0
2017-Jul-15 22:50N 60°01' E 029°28'0 0.0
2017-Jul-15 22:25N 60°01' E 029°28'0 0.0
2017-Jul-15 21:55N 60°01' E 029°28'0 0.0
2017-Jul-15 18:58N 60°01' E 029°28'0 0.0
2017-Jul-15 16:40N 60°01' E 029°28'0 0.0
2017-Jul-15 16:25N 60°01' E 029°28'0 0.0
2017-Jul-15 16:00N 60°01' E 029°28'0 0.0
2017-Jul-15 15:29N 60°01' E 029°28'0 0.0
2017-Jul-15 14:58N 60°01' E 029°28'0 0.0
2017-Jul-15 14:00N 60°01' E 029°28'0 0.0
2017-Jul-14 20:04N 60°01' E 029°28'0 0.3
2017-Jul-14 20:00N 60°01' E 029°28'8 6.0
2017-Jul-14 18:43N 59°59' E 029°43'0 0.2
2017-Jul-14 16:48N 59°59' E 029°42'0 0.0
2017-Jul-14 15:06N 59°59' E 029°42'0 0.0
2017-Jul-14 14:35N 59°59' E 029°42'0 0.0
2017-Jul-14 14:26N 59°59' E 029°42'0 0.0
2017-Jul-14 14:00N 59°59' E 029°42'0 0.0
2017-Jul-14 13:23N 59°59' E 029°42'0 0.0
2017-Jul-14 12:55N 59°59' E 029°42'0 0.0
2017-Jul-14 10:50N 59°59' E 029°42'0 0.0
2017-Jul-14 08:57N 59°59' E 029°42'0 0.0
2017-Jul-14 08:09N 59°59' E 029°42'0 0.0
2017-Jul-14 07:55N 59°59' E 029°42'0 0.0
2017-Jul-14 07:29N 59°59' E 029°42'0 0.0
2017-Jul-14 06:58N 59°59' E 029°42'0 0.0
2017-Jul-14 06:27N 59°59' E 029°42'0 0.0
2017-Jul-14 05:53N 59°59' E 029°42'0 0.0
2017-Jul-14 05:28N 59°59' E 029°42'  
Track history (hours):
 
Tides and Currents Weather Stations Pressure Air Temp Water Temp Dewpoint Dewpoint Depression Visibility Wind Speed Wind Dir Waves Ship Positions

St.peterburg Pilot

Last reported at 2017-Jul-23 17:26 UTC. Time now 2017-Jul-26 18:41 UTC.
Position N 60°01' E 029°29'.

Length 59 m; draft 3.8 m.

Type: Pilot. MMSI: 273436530.

Date/timePositionNaut miles runAvg speedWind from/ knotsBaromVisibWave heightAir tempDewpointWater temp
2017-Jul-23 17:26N 60°01' E 029°29'0 0.0
2017-Jul-23 16:58N 60°01' E 029°29'0 0.0
2017-Jul-23 16:27N 60°01' E 029°29'0 0.0
2017-Jul-23 15:57N 60°01' E 029°29'0 0.0
2017-Jul-23 15:16N 60°01' E 029°29'0 0.0
2017-Jul-23 14:31N 60°01' E 029°29'0 0.2
2017-Jul-23 14:29N 60°01' E 029°29'0 0.0
2017-Jul-23 13:56N 60°01' E 029°29'0 0.0
2017-Jul-23 13:25N 60°01' E 029°29'0 0.0
2017-Jul-23 12:59N 60°01' E 029°29'0 0.0
2017-Jul-23 12:20N 60°01' E 029°29'0 0.0
2017-Jul-23 11:55N 60°01' E 029°29'0 0.0
2017-Jul-23 05:52N 60°01' E 029°29'0 0.0
2017-Jul-23 05:30N 60°01' E 029°29'0 0.0
2017-Jul-23 04:57N 60°01' E 029°29'0 0.0
2017-Jul-23 04:27N 60°01' E 029°29'0 0.0
2017-Jul-23 03:55N 60°01' E 029°29'0 0.0
2017-Jul-23 03:28N 60°01' E 029°29'0 0.0
2017-Jul-23 02:58N 60°01' E 029°29'0 0.0
2017-Jul-23 02:28N 60°01' E 029°29'0 0.0
2017-Jul-23 01:56N 60°01' E 029°29'0 0.0
2017-Jul-23 01:30N 60°01' E 029°29'0 0.0
2017-Jul-23 00:56N 60°01' E 029°29'0 0.0
2017-Jul-23 00:19N 60°01' E 029°29'0 0.0
2017-Jul-23 00:00N 60°01' E 029°29'0 0.0
2017-Jul-22 23:30N 60°01' E 029°29'0 0.0
2017-Jul-22 22:49N 60°01' E 029°29'0 0.0
2017-Jul-22 22:27N 60°01' E 029°29'0 0.0
2017-Jul-22 21:48N 60°01' E 029°29'0 0.0
2017-Jul-22 21:25N 60°01' E 029°29'0 0.0
2017-Jul-22 19:57N 60°01' E 029°29'0 0.0
2017-Jul-22 19:25N 60°01' E 029°29'0 0.0
2017-Jul-22 18:41N 60°01' E 029°29'0 0.0
2017-Jul-22 18:19N 60°01' E 029°29'0 0.0
2017-Jul-22 17:23N 60°01' E 029°29'0 0.0
2017-Jul-22 16:51N 60°01' E 029°29'0 0.0
2017-Jul-22 16:26N 60°01' E 029°29'0 0.0
2017-Jul-22 15:58N 60°01' E 029°29'0 0.0
2017-Jul-22 15:21N 60°01' E 029°29'0 0.0
2017-Jul-22 14:59N 60°01' E 029°29'0 0.0
2017-Jul-22 04:34N 60°01' E 029°29'0 0.0
2017-Jul-22 04:16N 60°01' E 029°29'0 0.0
2017-Jul-22 03:52N 60°01' E 029°29'0 0.0
2017-Jul-22 03:23N 60°01' E 029°29'0 0.0
2017-Jul-21 20:44N 60°01' E 029°29'0 0.0
2017-Jul-21 19:53N 60°01' E 029°29'0 0.0
2017-Jul-21 19:28N 60°01' E 029°29'0 0.0
2017-Jul-21 18:55N 60°01' E 029°29'0 0.0
2017-Jul-21 18:30N 60°01' E 029°29'0 0.0
2017-Jul-21 17:59N 60°01' E 029°29'0 0.0
2017-Jul-21 17:28N 60°01' E 029°29'0 0.0
2017-Jul-21 16:57N 60°01' E 029°29'0 0.0
2017-Jul-21 16:24N 60°01' E 029°29'0 0.0
2017-Jul-21 15:58N 60°01' E 029°29'0 0.0
2017-Jul-21 11:20N 60°01' E 029°29'0 0.0
2017-Jul-21 10:56N 60°01' E 029°29'0 0.0
2017-Jul-21 10:28N 60°01' E 029°29'0 0.0
2017-Jul-21 09:59N 60°01' E 029°29'0 0.0
2017-Jul-21 09:29N 60°01' E 029°29'0 0.0
2017-Jul-21 08:57N 60°01' E 029°29'0 0.0
2017-Jul-21 08:25N 60°01' E 029°29'0 0.0
2017-Jul-21 07:58N 60°01' E 029°29'0 0.0
2017-Jul-21 06:56N 60°01' E 029°29'0 0.0
2017-Jul-21 06:23N 60°01' E 029°29'0 0.0
2017-Jul-21 05:58N 60°01' E 029°29'0 0.0
2017-Jul-21 05:29N 60°01' E 029°29'0 0.0
2017-Jul-21 04:08N 60°01' E 029°29'0 0.0
2017-Jul-21 00:58N 60°01' E 029°29'0 0.0
2017-Jul-21 00:17N 60°01' E 029°29'0 0.0
2017-Jul-20 23:58N 60°01' E 029°29'0 0.1
2017-Jul-20 23:28N 60°01' E 029°29'0 0.0
2017-Jul-20 22:57N 60°01' E 029°29'6 0.2
2017-Jul-19 19:17N 59°60' E 029°40'2 7.6
2017-Jul-19 18:58N 59°59' E 029°44'4 8.9
2017-Jul-19 18:30N 59°57' E 029°51'5 9.5
2017-Jul-19 18:00N 59°55' E 030°00'4 8.4
2017-Jul-19 17:30N 59°54' E 030°08'3 5.2
2017-Jul-19 17:00N 59°54' E 030°13'0 0.1
2017-Jul-19 16:25N 59°54' E 030°13'0 0.0
2017-Jul-19 15:59N 59°54' E 030°13'0 0.0
2017-Jul-19 15:29N 59°54' E 030°13'0 0.0
2017-Jul-19 14:57N 59°54' E 030°13'0 0.0
2017-Jul-19 14:30N 59°54' E 030°13'0 0.0
2017-Jul-19 14:00N 59°54' E 030°13'0 0.0
2017-Jul-19 13:29N 59°54' E 030°13'0 0.0
2017-Jul-19 12:57N 59°54' E 030°13'0 0.0
2017-Jul-19 12:30N 59°54' E 030°13'0 0.0
2017-Jul-19 11:59N 59°54' E 030°13'0 0.0
2017-Jul-19 11:28N 59°54' E 030°13'0 0.0
2017-Jul-19 10:56N 59°54' E 030°13'0 0.0
2017-Jul-19 10:30N 59°54' E 030°13'0 0.0
2017-Jul-19 10:00N 59°54' E 030°13'0 0.0
2017-Jul-19 09:29N 59°54' E 030°13'0 0.0
2017-Jul-19 09:00N 59°54' E 030°13'0 0.0
2017-Jul-19 08:30N 59°54' E 030°13'0 0.6
2017-Jul-19 08:00N 59°54' E 030°13'2 4.4
2017-Jul-19 07:30N 59°56' E 030°10'4 6.7
2017-Jul-19 06:58N 59°56' E 030°03'4 7.4
2017-Jul-19 06:28N 59°56' E 029°56'15 2.9
2017-Jul-19 01:21N 60°01' E 029°28'0 0.0
2017-Jul-17 10:13N 60°01' E 029°28'0 0.0
2017-Jul-17 09:52N 60°01' E 029°28'0 0.0
2017-Jul-17 07:49N 60°01' E 029°28'0 0.0
2017-Jul-16 21:59N 60°01' E 029°28'0 0.0
2017-Jul-16 21:28N 60°01' E 029°28'0 0.0
2017-Jul-16 20:59N 60°01' E 029°28'0 0.0
2017-Jul-16 20:29N 60°01' E 029°28'0 0.0
2017-Jul-16 19:49N 60°01' E 029°28'0 0.1
2017-Jul-16 19:31N 60°01' E 029°28'0 0.0
2017-Jul-16 18:56N 60°01' E 029°28'0 0.0
2017-Jul-16 18:12N 60°01' E 029°28'0 0.0
2017-Jul-16 16:59N 60°01' E 029°28'0 0.0
2017-Jul-16 16:27N 60°01' E 029°28'0 0.0
2017-Jul-16 00:34N 60°01' E 029°28'0 0.0
2017-Jul-16 00:26N 60°01' E 029°28'0 0.0
2017-Jul-15 23:51N 60°01' E 029°28'0 0.0
2017-Jul-15 23:30N 60°01' E 029°28'0 0.0
2017-Jul-15 22:50N 60°01' E 029°28'0 0.0
2017-Jul-15 22:25N 60°01' E 029°28'0 0.0
2017-Jul-15 21:55N 60°01' E 029°28'0 0.0
2017-Jul-15 18:58N 60°01' E 029°28'0 0.0
2017-Jul-15 16:40N 60°01' E 029°28'0 0.0
2017-Jul-15 16:25N 60°01' E 029°28'0 0.0
2017-Jul-15 16:00N 60°01' E 029°28'0 0.0
2017-Jul-15 15:29N 60°01' E 029°28'0 0.0
2017-Jul-15 14:58N 60°01' E 029°28'0 0.0
2017-Jul-15 14:00N 60°01' E 029°28'0 0.0
2017-Jul-14 20:04N 60°01' E 029°28'0 0.3
2017-Jul-14 20:00N 60°01' E 029°28'8 6.0
2017-Jul-14 18:43N 59°59' E 029°43'0 0.2
2017-Jul-14 16:48N 59°59' E 029°42'0 0.0
2017-Jul-14 15:06N 59°59' E 029°42'0 0.0
2017-Jul-14 14:35N 59°59' E 029°42'0 0.0
2017-Jul-14 14:26N 59°59' E 029°42'0 0.0
2017-Jul-14 14:00N 59°59' E 029°42'0 0.0
2017-Jul-14 13:23N 59°59' E 029°42'0 0.0
2017-Jul-14 12:55N 59°59' E 029°42'0 0.0
2017-Jul-14 10:50N 59°59' E 029°42'0 0.0
2017-Jul-14 08:57N 59°59' E 029°42'0 0.0
2017-Jul-14 08:09N 59°59' E 029°42'0 0.0
2017-Jul-14 07:55N 59°59' E 029°42'0 0.0
2017-Jul-14 07:29N 59°59' E 029°42'0 0.0
2017-Jul-14 06:58N 59°59' E 029°42'0 0.0
2017-Jul-14 06:27N 59°59' E 029°42'0 0.0
2017-Jul-14 05:53N 59°59' E 029°42'0 0.0
2017-Jul-14 05:28N 59°59' E 029°42'  

Dump ship's entire track history